sensor_id;sensor_type;location;lat;lon;timestamp;P1;durP1;ratioP1;P2;durP2;ratioP2
19111;SDS011;9688;51.906;8.376;2023-04-09T00:00:10;49.70;;;23.50;;
19111;SDS011;9688;51.906;8.376;2023-04-09T00:03:01;53.30;;;23.07;;
19111;SDS011;9688;51.906;8.376;2023-04-09T00:05:47;54.93;;;24.67;;
19111;SDS011;9688;51.906;8.376;2023-04-09T00:08:34;52.43;;;24.13;;
19111;SDS011;9688;51.906;8.376;2023-04-09T00:11:22;57.50;;;24.37;;
19111;SDS011;9688;51.906;8.376;2023-04-09T00:14:08;56.77;;;25.27;;
19111;SDS011;9688;51.906;8.376;2023-04-09T00:16:54;57.17;;;24.07;;
19111;SDS011;9688;51.906;8.376;2023-04-09T00:19:41;53.07;;;23.90;;
19111;SDS011;9688;51.906;8.376;2023-04-09T00:22:33;52.17;;;23.57;;
19111;SDS011;9688;51.906;8.376;2023-04-09T00:25:19;59.67;;;25.70;;
19111;SDS011;9688;51.906;8.376;2023-04-09T00:28:05;60.33;;;25.20;;
19111;SDS011;9688;51.906;8.376;2023-04-09T00:30:51;57.60;;;24.93;;
19111;SDS011;9688;51.906;8.376;2023-04-09T00:33:37;56.87;;;24.40;;
19111;SDS011;9688;51.906;8.376;2023-04-09T00:36:24;56.37;;;25.93;;
19111;SDS011;9688;51.906;8.376;2023-04-09T00:39:10;59.10;;;25.70;;
19111;SDS011;9688;51.906;8.376;2023-04-09T00:41:56;57.37;;;24.63;;
19111;SDS011;9688;51.906;8.376;2023-04-09T00:44:42;62.47;;;25.07;;
19111;SDS011;9688;51.906;8.376;2023-04-09T00:47:28;59.70;;;25.80;;
19111;SDS011;9688;51.906;8.376;2023-04-09T00:50:14;58.83;;;24.47;;
19111;SDS011;9688;51.906;8.376;2023-04-09T00:53:02;57.57;;;25.13;;
19111;SDS011;9688;51.906;8.376;2023-04-09T00:55:48;59.07;;;26.10;;
19111;SDS011;9688;51.906;8.376;2023-04-09T00:58:34;56.47;;;25.87;;
19111;SDS011;9688;51.906;8.376;2023-04-09T01:01:20;60.77;;;27.37;;
19111;SDS011;9688;51.906;8.376;2023-04-09T01:04:06;64.60;;;27.37;;
19111;SDS011;9688;51.906;8.376;2023-04-09T01:06:52;63.97;;;26.87;;
19111;SDS011;9688;51.906;8.376;2023-04-09T01:09:46;63.13;;;26.73;;
19111;SDS011;9688;51.906;8.376;2023-04-09T01:12:41;68.77;;;28.27;;
19111;SDS011;9688;51.906;8.376;2023-04-09T01:15:36;66.97;;;28.07;;
19111;SDS011;9688;51.906;8.376;2023-04-09T01:18:28;58.77;;;26.13;;
19111;SDS011;9688;51.906;8.376;2023-04-09T01:21:19;67.97;;;29.87;;
19111;SDS011;9688;51.906;8.376;2023-04-09T01:24:09;67.97;;;29.73;;
19111;SDS011;9688;51.906;8.376;2023-04-09T01:27:05;67.27;;;29.37;;
19111;SDS011;9688;51.906;8.376;2023-04-09T01:29:53;65.73;;;28.70;;
19111;SDS011;9688;51.906;8.376;2023-04-09T01:32:40;70.07;;;29.03;;
19111;SDS011;9688;51.906;8.376;2023-04-09T01:35:27;64.90;;;28.03;;
19111;SDS011;9688;51.906;8.376;2023-04-09T01:38:14;69.70;;;27.50;;
19111;SDS011;9688;51.906;8.376;2023-04-09T01:41:03;65.17;;;28.23;;
19111;SDS011;9688;51.906;8.376;2023-04-09T01:43:49;65.20;;;29.77;;
19111;SDS011;9688;51.906;8.376;2023-04-09T01:46:37;67.27;;;29.13;;
19111;SDS011;9688;51.906;8.376;2023-04-09T01:49:25;67.50;;;28.93;;
19111;SDS011;9688;51.906;8.376;2023-04-09T01:52:11;71.30;;;29.20;;
19111;SDS011;9688;51.906;8.376;2023-04-09T01:54:57;70.87;;;28.87;;
19111;SDS011;9688;51.906;8.376;2023-04-09T01:57:43;77.40;;;31.47;;
19111;SDS011;9688;51.906;8.376;2023-04-09T02:00:30;69.63;;;30.00;;
19111;SDS011;9688;51.906;8.376;2023-04-09T02:03:22;75.83;;;30.30;;
19111;SDS011;9688;51.906;8.376;2023-04-09T02:06:13;66.50;;;28.57;;
19111;SDS011;9688;51.906;8.376;2023-04-09T02:09:07;73.83;;;30.87;;
19111;SDS011;9688;51.906;8.376;2023-04-09T02:11:53;77.03;;;31.67;;
19111;SDS011;9688;51.906;8.376;2023-04-09T02:14:44;75.00;;;31.27;;
19111;SDS011;9688;51.906;8.376;2023-04-09T02:17:30;72.43;;;29.77;;
19111;SDS011;9688;51.906;8.376;2023-04-09T02:20:18;67.40;;;30.47;;
19111;SDS011;9688;51.906;8.376;2023-04-09T02:23:04;71.30;;;30.17;;
19111;SDS011;9688;51.906;8.376;2023-04-09T02:25:49;68.47;;;30.70;;
19111;SDS011;9688;51.906;8.376;2023-04-09T02:28:37;68.53;;;29.77;;
19111;SDS011;9688;51.906;8.376;2023-04-09T02:31:22;75.67;;;29.43;;
19111;SDS011;9688;51.906;8.376;2023-04-09T02:34:07;79.80;;;32.13;;
19111;SDS011;9688;51.906;8.376;2023-04-09T02:36:54;76.13;;;30.67;;
19111;SDS011;9688;51.906;8.376;2023-04-09T02:39:40;72.13;;;29.83;;
19111;SDS011;9688;51.906;8.376;2023-04-09T02:42:25;75.10;;;30.93;;
19111;SDS011;9688;51.906;8.376;2023-04-09T02:45:11;75.93;;;31.57;;
19111;SDS011;9688;51.906;8.376;2023-04-09T02:47:56;72.87;;;31.10;;
19111;SDS011;9688;51.906;8.376;2023-04-09T02:50:42;73.70;;;31.00;;
19111;SDS011;9688;51.906;8.376;2023-04-09T02:53:29;74.20;;;31.37;;
19111;SDS011;9688;51.906;8.376;2023-04-09T02:56:14;76.17;;;32.43;;
19111;SDS011;9688;51.906;8.376;2023-04-09T02:58:59;74.60;;;30.90;;
19111;SDS011;9688;51.906;8.376;2023-04-09T03:01:45;75.80;;;30.80;;
19111;SDS011;9688;51.906;8.376;2023-04-09T03:04:31;72.60;;;30.47;;
19111;SDS011;9688;51.906;8.376;2023-04-09T03:07:16;67.43;;;27.23;;
19111;SDS011;9688;51.906;8.376;2023-04-09T03:10:06;69.57;;;29.70;;
19111;SDS011;9688;51.906;8.376;2023-04-09T03:12:52;65.57;;;27.40;;
19111;SDS011;9688;51.906;8.376;2023-04-09T03:15:41;72.67;;;29.20;;
19111;SDS011;9688;51.906;8.376;2023-04-09T03:18:27;79.47;;;30.87;;
19111;SDS011;9688;51.906;8.376;2023-04-09T03:21:12;70.73;;;30.07;;
19111;SDS011;9688;51.906;8.376;2023-04-09T03:23:58;67.73;;;28.70;;
19111;SDS011;9688;51.906;8.376;2023-04-09T03:26:46;77.17;;;31.97;;
19111;SDS011;9688;51.906;8.376;2023-04-09T03:29:32;68.90;;;28.20;;
19111;SDS011;9688;51.906;8.376;2023-04-09T03:32:18;56.33;;;26.93;;
19111;SDS011;9688;51.906;8.376;2023-04-09T03:35:03;66.73;;;28.13;;
19111;SDS011;9688;51.906;8.376;2023-04-09T03:37:49;71.83;;;29.17;;
19111;SDS011;9688;51.906;8.376;2023-04-09T03:40:35;71.37;;;28.73;;
19111;SDS011;9688;51.906;8.376;2023-04-09T03:43:22;73.80;;;30.80;;
19111;SDS011;9688;51.906;8.376;2023-04-09T03:46:10;69.53;;;29.47;;
19111;SDS011;9688;51.906;8.376;2023-04-09T03:48:56;75.50;;;31.27;;
19111;SDS011;9688;51.906;8.376;2023-04-09T03:51:42;73.83;;;29.90;;
19111;SDS011;9688;51.906;8.376;2023-04-09T03:54:28;67.63;;;28.57;;
19111;SDS011;9688;51.906;8.376;2023-04-09T03:57:13;76.00;;;31.77;;
19111;SDS011;9688;51.906;8.376;2023-04-09T04:00:00;71.10;;;30.33;;
19111;SDS011;9688;51.906;8.376;2023-04-09T04:02:50;76.13;;;30.73;;
19111;SDS011;9688;51.906;8.376;2023-04-09T04:05:36;65.50;;;28.07;;
19111;SDS011;9688;51.906;8.376;2023-04-09T04:08:21;75.83;;;31.80;;
19111;SDS011;9688;51.906;8.376;2023-04-09T04:11:06;79.23;;;31.70;;
19111;SDS011;9688;51.906;8.376;2023-04-09T04:13:52;76.10;;;32.40;;
19111;SDS011;9688;51.906;8.376;2023-04-09T04:16:40;73.23;;;30.70;;
19111;SDS011;9688;51.906;8.376;2023-04-09T04:19:25;71.23;;;29.67;;
19111;SDS011;9688;51.906;8.376;2023-04-09T04:22:11;72.40;;;31.20;;
19111;SDS011;9688;51.906;8.376;2023-04-09T04:24:56;78.07;;;29.73;;
19111;SDS011;9688;51.906;8.376;2023-04-09T04:27:42;74.70;;;31.33;;
19111;SDS011;9688;51.906;8.376;2023-04-09T04:30:28;76.57;;;30.70;;
19111;SDS011;9688;51.906;8.376;2023-04-09T04:33:15;72.83;;;30.03;;
19111;SDS011;9688;51.906;8.376;2023-04-09T04:36:03;72.33;;;29.73;;
19111;SDS011;9688;51.906;8.376;2023-04-09T04:38:50;70.10;;;29.40;;
19111;SDS011;9688;51.906;8.376;2023-04-09T04:41:36;67.00;;;29.57;;
19111;SDS011;9688;51.906;8.376;2023-04-09T04:44:21;70.13;;;30.00;;
19111;SDS011;9688;51.906;8.376;2023-04-09T04:47:07;69.47;;;29.63;;
19111;SDS011;9688;51.906;8.376;2023-04-09T04:49:55;82.03;;;30.83;;
19111;SDS011;9688;51.906;8.376;2023-04-09T04:52:41;64.90;;;27.43;;
19111;SDS011;9688;51.906;8.376;2023-04-09T04:55:26;74.60;;;30.97;;
19111;SDS011;9688;51.906;8.376;2023-04-09T04:58:12;67.77;;;28.33;;
19111;SDS011;9688;51.906;8.376;2023-04-09T05:00:57;76.03;;;31.07;;
19111;SDS011;9688;51.906;8.376;2023-04-09T05:03:43;76.70;;;31.27;;
19111;SDS011;9688;51.906;8.376;2023-04-09T05:06:30;75.13;;;31.80;;
19111;SDS011;9688;51.906;8.376;2023-04-09T05:09:17;66.20;;;28.10;;
19111;SDS011;9688;51.906;8.376;2023-04-09T05:12:02;64.50;;;27.53;;
19111;SDS011;9688;51.906;8.376;2023-04-09T05:14:48;66.33;;;29.33;;
19111;SDS011;9688;51.906;8.376;2023-04-09T05:17:33;59.07;;;25.60;;
19111;SDS011;9688;51.906;8.376;2023-04-09T05:20:44;58.57;;;27.63;;
19111;SDS011;9688;51.906;8.376;2023-04-09T05:23:31;62.10;;;28.07;;
19111;SDS011;9688;51.906;8.376;2023-04-09T05:26:16;55.63;;;25.23;;
19111;SDS011;9688;51.906;8.376;2023-04-09T05:29:02;53.57;;;24.80;;
19111;SDS011;9688;51.906;8.376;2023-04-09T05:31:47;57.70;;;26.90;;
19111;SDS011;9688;51.906;8.376;2023-04-09T05:34:33;60.20;;;26.23;;
19111;SDS011;9688;51.906;8.376;2023-04-09T05:37:18;59.83;;;26.30;;
19111;SDS011;9688;51.906;8.376;2023-04-09T05:40:08;62.60;;;27.90;;
19111;SDS011;9688;51.906;8.376;2023-04-09T05:42:55;56.43;;;26.03;;
19111;SDS011;9688;51.906;8.376;2023-04-09T05:45:41;60.13;;;27.27;;
19111;SDS011;9688;51.906;8.376;2023-04-09T05:48:26;55.20;;;25.33;;
19111;SDS011;9688;51.906;8.376;2023-04-09T05:51:12;57.50;;;25.23;;
19111;SDS011;9688;51.906;8.376;2023-04-09T05:53:58;58.43;;;26.70;;
19111;SDS011;9688;51.906;8.376;2023-04-09T05:56:46;60.80;;;26.73;;
19111;SDS011;9688;51.906;8.376;2023-04-09T05:59:32;52.90;;;25.57;;
19111;SDS011;9688;51.906;8.376;2023-04-09T06:02:17;52.70;;;25.07;;
19111;SDS011;9688;51.906;8.376;2023-04-09T06:05:03;54.27;;;26.27;;
19111;SDS011;9688;51.906;8.376;2023-04-09T06:07:49;55.53;;;24.97;;
19111;SDS011;9688;51.906;8.376;2023-04-09T06:10:35;63.13;;;26.27;;
19111;SDS011;9688;51.906;8.376;2023-04-09T06:13:22;51.57;;;24.43;;
19111;SDS011;9688;51.906;8.376;2023-04-09T06:16:07;52.10;;;24.03;;
19111;SDS011;9688;51.906;8.376;2023-04-09T06:18:54;56.43;;;26.70;;
19111;SDS011;9688;51.906;8.376;2023-04-09T06:21:40;52.53;;;25.07;;
19111;SDS011;9688;51.906;8.376;2023-04-09T06:24:25;54.67;;;24.83;;
19111;SDS011;9688;51.906;8.376;2023-04-09T06:27:10;56.33;;;24.97;;
19111;SDS011;9688;51.906;8.376;2023-04-09T06:29:57;47.37;;;23.70;;
19111;SDS011;9688;51.906;8.376;2023-04-09T06:32:43;51.37;;;25.33;;
19111;SDS011;9688;51.906;8.376;2023-04-09T06:35:30;49.23;;;23.77;;
19111;SDS011;9688;51.906;8.376;2023-04-09T06:38:15;46.97;;;23.63;;
19111;SDS011;9688;51.906;8.376;2023-04-09T06:41:01;49.33;;;24.37;;
19111;SDS011;9688;51.906;8.376;2023-04-09T06:43:49;42.30;;;22.40;;
19111;SDS011;9688;51.906;8.376;2023-04-09T06:46:36;48.40;;;24.43;;
19111;SDS011;9688;51.906;8.376;2023-04-09T06:49:21;50.43;;;24.67;;
19111;SDS011;9688;51.906;8.376;2023-04-09T06:52:07;46.57;;;23.50;;
19111;SDS011;9688;51.906;8.376;2023-04-09T06:54:53;46.33;;;24.30;;
19111;SDS011;9688;51.906;8.376;2023-04-09T06:57:39;48.67;;;24.10;;
19111;SDS011;9688;51.906;8.376;2023-04-09T07:00:24;47.73;;;23.67;;
19111;SDS011;9688;51.906;8.376;2023-04-09T07:03:11;51.87;;;25.00;;
19111;SDS011;9688;51.906;8.376;2023-04-09T07:05:56;46.30;;;24.50;;
19111;SDS011;9688;51.906;8.376;2023-04-09T07:08:42;44.10;;;23.03;;
19111;SDS011;9688;51.906;8.376;2023-04-09T07:11:28;51.07;;;23.87;;
19111;SDS011;9688;51.906;8.376;2023-04-09T07:14:13;47.93;;;22.67;;
19111;SDS011;9688;51.906;8.376;2023-04-09T07:16:59;47.10;;;23.73;;
19111;SDS011;9688;51.906;8.376;2023-04-09T07:19:46;45.43;;;23.80;;
19111;SDS011;9688;51.906;8.376;2023-04-09T07:22:31;45.30;;;23.47;;
19111;SDS011;9688;51.906;8.376;2023-04-09T07:25:17;45.50;;;23.33;;
19111;SDS011;9688;51.906;8.376;2023-04-09T07:28:04;42.60;;;23.57;;
19111;SDS011;9688;51.906;8.376;2023-04-09T07:30:50;41.93;;;22.13;;
19111;SDS011;9688;51.906;8.376;2023-04-09T07:33:36;42.67;;;22.10;;
19111;SDS011;9688;51.906;8.376;2023-04-09T07:36:23;39.37;;;21.80;;
19111;SDS011;9688;51.906;8.376;2023-04-09T07:39:09;43.07;;;22.83;;
19111;SDS011;9688;51.906;8.376;2023-04-09T07:41:54;41.67;;;21.97;;
19111;SDS011;9688;51.906;8.376;2023-04-09T07:44:40;41.43;;;21.47;;
19111;SDS011;9688;51.906;8.376;2023-04-09T07:47:26;41.20;;;21.70;;
19111;SDS011;9688;51.906;8.376;2023-04-09T07:50:14;42.53;;;21.20;;
19111;SDS011;9688;51.906;8.376;2023-04-09T07:53:01;40.20;;;21.70;;
19111;SDS011;9688;51.906;8.376;2023-04-09T07:55:50;37.77;;;20.13;;
19111;SDS011;9688;51.906;8.376;2023-04-09T07:58:35;43.87;;;22.23;;
19111;SDS011;9688;51.906;8.376;2023-04-09T08:01:22;40.70;;;22.57;;
19111;SDS011;9688;51.906;8.376;2023-04-09T08:04:09;42.00;;;21.33;;
19111;SDS011;9688;51.906;8.376;2023-04-09T08:06:56;41.00;;;21.10;;
19111;SDS011;9688;51.906;8.376;2023-04-09T08:09:43;37.27;;;20.73;;
19111;SDS011;9688;51.906;8.376;2023-04-09T08:12:29;43.23;;;21.40;;
19111;SDS011;9688;51.906;8.376;2023-04-09T08:15:15;38.17;;;20.53;;
19111;SDS011;9688;51.906;8.376;2023-04-09T08:18:01;36.37;;;20.00;;
19111;SDS011;9688;51.906;8.376;2023-04-09T08:20:47;38.67;;;20.50;;
19111;SDS011;9688;51.906;8.376;2023-04-09T08:23:33;38.50;;;20.73;;
19111;SDS011;9688;51.906;8.376;2023-04-09T08:26:20;38.50;;;20.47;;
19111;SDS011;9688;51.906;8.376;2023-04-09T08:29:06;40.43;;;20.40;;
19111;SDS011;9688;51.906;8.376;2023-04-09T08:31:52;34.77;;;19.83;;
19111;SDS011;9688;51.906;8.376;2023-04-09T08:34:38;39.43;;;20.50;;
19111;SDS011;9688;51.906;8.376;2023-04-09T08:37:24;36.07;;;19.97;;
19111;SDS011;9688;51.906;8.376;2023-04-09T08:40:10;34.30;;;19.63;;
19111;SDS011;9688;51.906;8.376;2023-04-09T08:42:59;33.93;;;19.13;;
19111;SDS011;9688;51.906;8.376;2023-04-09T08:45:49;33.60;;;18.87;;
19111;SDS011;9688;51.906;8.376;2023-04-09T08:48:35;36.10;;;18.83;;
19111;SDS011;9688;51.906;8.376;2023-04-09T08:51:21;31.67;;;17.80;;
19111;SDS011;9688;51.906;8.376;2023-04-09T08:54:08;32.97;;;18.23;;
19111;SDS011;9688;51.906;8.376;2023-04-09T08:56:54;31.37;;;17.43;;
19111;SDS011;9688;51.906;8.376;2023-04-09T08:59:41;33.47;;;18.17;;
19111;SDS011;9688;51.906;8.376;2023-04-09T09:02:31;30.07;;;16.70;;
19111;SDS011;9688;51.906;8.376;2023-04-09T09:05:17;27.80;;;16.20;;
19111;SDS011;9688;51.906;8.376;2023-04-09T09:08:21;31.07;;;16.83;;
19111;SDS011;9688;51.906;8.376;2023-04-09T09:11:08;27.97;;;15.77;;
19111;SDS011;9688;51.906;8.376;2023-04-09T09:13:56;27.20;;;16.17;;
19111;SDS011;9688;51.906;8.376;2023-04-09T09:16:44;23.27;;;14.43;;
19111;SDS011;9688;51.906;8.376;2023-04-09T09:19:48;29.57;;;16.23;;
19111;SDS011;9688;51.906;8.376;2023-04-09T09:22:47;26.13;;;15.13;;
19111;SDS011;9688;51.906;8.376;2023-04-09T09:25:36;28.20;;;16.43;;
19111;SDS011;9688;51.906;8.376;2023-04-09T09:28:22;26.17;;;14.77;;
19111;SDS011;9688;51.906;8.376;2023-04-09T09:31:19;23.30;;;14.97;;
19111;SDS011;9688;51.906;8.376;2023-04-09T09:34:08;25.63;;;15.47;;
19111;SDS011;9688;51.906;8.376;2023-04-09T09:36:54;29.50;;;16.33;;
19111;SDS011;9688;51.906;8.376;2023-04-09T09:39:41;25.33;;;15.57;;
19111;SDS011;9688;51.906;8.376;2023-04-09T09:42:32;30.03;;;16.07;;
19111;SDS011;9688;51.906;8.376;2023-04-09T09:45:19;25.63;;;14.97;;
19111;SDS011;9688;51.906;8.376;2023-04-09T09:48:06;22.27;;;13.37;;
19111;SDS011;9688;51.906;8.376;2023-04-09T09:50:58;23.93;;;13.43;;
19111;SDS011;9688;51.906;8.376;2023-04-09T09:53:47;23.37;;;13.40;;
19111;SDS011;9688;51.906;8.376;2023-04-09T09:56:36;22.70;;;12.67;;
19111;SDS011;9688;51.906;8.376;2023-04-09T09:59:22;23.50;;;13.90;;
19111;SDS011;9688;51.906;8.376;2023-04-09T10:02:17;21.03;;;12.57;;
19111;SDS011;9688;51.906;8.376;2023-04-09T10:05:05;23.43;;;14.70;;
19111;SDS011;9688;51.906;8.376;2023-04-09T10:07:54;22.63;;;14.13;;
19111;SDS011;9688;51.906;8.376;2023-04-09T10:10:42;23.10;;;13.50;;
19111;SDS011;9688;51.906;8.376;2023-04-09T10:13:32;23.87;;;12.77;;
19111;SDS011;9688;51.906;8.376;2023-04-09T10:16:19;18.57;;;11.33;;
19111;SDS011;9688;51.906;8.376;2023-04-09T10:19:05;15.17;;;10.00;;
19111;SDS011;9688;51.906;8.376;2023-04-09T10:21:58;14.20;;;8.97;;
19111;SDS011;9688;51.906;8.376;2023-04-09T10:24:50;15.27;;;9.70;;
19111;SDS011;9688;51.906;8.376;2023-04-09T10:27:36;16.07;;;10.33;;
19111;SDS011;9688;51.906;8.376;2023-04-09T10:30:31;15.63;;;10.47;;
19111;SDS011;9688;51.906;8.376;2023-04-09T10:33:21;14.30;;;9.27;;
19111;SDS011;9688;51.906;8.376;2023-04-09T10:36:09;15.13;;;10.03;;
19111;SDS011;9688;51.906;8.376;2023-04-09T10:38:57;15.17;;;9.57;;
19111;SDS011;9688;51.906;8.376;2023-04-09T10:41:44;14.07;;;9.87;;
19111;SDS011;9688;51.906;8.376;2023-04-09T10:44:32;15.87;;;10.13;;
19111;SDS011;9688;51.906;8.376;2023-04-09T10:47:30;16.27;;;10.27;;
19111;SDS011;9688;51.906;8.376;2023-04-09T10:50:17;16.17;;;10.13;;
19111;SDS011;9688;51.906;8.376;2023-04-09T10:53:04;14.57;;;9.50;;
19111;SDS011;9688;51.906;8.376;2023-04-09T10:55:51;16.83;;;9.77;;
19111;SDS011;9688;51.906;8.376;2023-04-09T10:58:38;14.80;;;10.00;;
19111;SDS011;9688;51.906;8.376;2023-04-09T11:01:24;17.63;;;9.67;;
19111;SDS011;9688;51.906;8.376;2023-04-09T11:04:14;14.83;;;9.63;;
19111;SDS011;9688;51.906;8.376;2023-04-09T11:07:04;16.70;;;9.57;;
19111;SDS011;9688;51.906;8.376;2023-04-09T11:09:52;15.60;;;9.47;;
19111;SDS011;9688;51.906;8.376;2023-04-09T11:12:38;13.97;;;9.27;;
19111;SDS011;9688;51.906;8.376;2023-04-09T11:15:31;13.80;;;9.67;;
19111;SDS011;9688;51.906;8.376;2023-04-09T11:18:20;17.57;;;10.00;;
19111;SDS011;9688;51.906;8.376;2023-04-09T11:21:07;12.40;;;8.53;;
19111;SDS011;9688;51.906;8.376;2023-04-09T11:23:56;13.27;;;8.90;;
19111;SDS011;9688;51.906;8.376;2023-04-09T11:26:41;13.70;;;9.10;;
19111;SDS011;9688;51.906;8.376;2023-04-09T11:29:28;11.63;;;8.87;;
19111;SDS011;9688;51.906;8.376;2023-04-09T11:32:15;13.83;;;8.83;;
19111;SDS011;9688;51.906;8.376;2023-04-09T11:35:04;14.60;;;9.27;;
19111;SDS011;9688;51.906;8.376;2023-04-09T11:37:57;13.67;;;9.17;;
19111;SDS011;9688;51.906;8.376;2023-04-09T11:40:43;14.17;;;8.90;;
19111;SDS011;9688;51.906;8.376;2023-04-09T11:43:32;12.33;;;8.10;;
19111;SDS011;9688;51.906;8.376;2023-04-09T11:46:20;14.30;;;8.50;;
19111;SDS011;9688;51.906;8.376;2023-04-09T11:49:10;12.37;;;8.33;;
19111;SDS011;9688;51.906;8.376;2023-04-09T11:51:56;12.43;;;7.97;;
19111;SDS011;9688;51.906;8.376;2023-04-09T11:54:47;10.50;;;7.83;;
19111;SDS011;9688;51.906;8.376;2023-04-09T11:57:37;13.37;;;8.17;;
19111;SDS011;9688;51.906;8.376;2023-04-09T12:00:24;12.33;;;8.67;;
19111;SDS011;9688;51.906;8.376;2023-04-09T12:03:10;12.73;;;8.50;;
19111;SDS011;9688;51.906;8.376;2023-04-09T12:06:00;12.80;;;8.40;;
19111;SDS011;9688;51.906;8.376;2023-04-09T12:08:46;11.53;;;8.33;;
19111;SDS011;9688;51.906;8.376;2023-04-09T12:11:36;11.27;;;7.77;;
19111;SDS011;9688;51.906;8.376;2023-04-09T12:14:22;12.73;;;7.80;;
19111;SDS011;9688;51.906;8.376;2023-04-09T12:17:08;11.93;;;8.37;;
19111;SDS011;9688;51.906;8.376;2023-04-09T12:19:53;11.47;;;8.53;;
19111;SDS011;9688;51.906;8.376;2023-04-09T12:22:41;12.83;;;7.43;;
19111;SDS011;9688;51.906;8.376;2023-04-09T12:25:26;13.47;;;7.97;;
19111;SDS011;9688;51.906;8.376;2023-04-09T12:28:12;12.23;;;7.67;;
19111;SDS011;9688;51.906;8.376;2023-04-09T12:31:00;12.47;;;8.00;;
19111;SDS011;9688;51.906;8.376;2023-04-09T12:33:46;9.90;;;7.53;;
19111;SDS011;9688;51.906;8.376;2023-04-09T12:36:31;10.53;;;7.60;;
19111;SDS011;9688;51.906;8.376;2023-04-09T12:39:18;11.10;;;7.50;;
19111;SDS011;9688;51.906;8.376;2023-04-09T12:42:06;12.40;;;8.07;;
19111;SDS011;9688;51.906;8.376;2023-04-09T12:44:51;13.00;;;8.07;;
19111;SDS011;9688;51.906;8.376;2023-04-09T12:47:37;9.37;;;7.00;;
19111;SDS011;9688;51.906;8.376;2023-04-09T12:50:24;9.67;;;6.80;;
19111;SDS011;9688;51.906;8.376;2023-04-09T12:53:11;9.53;;;7.63;;
19111;SDS011;9688;51.906;8.376;2023-04-09T12:55:58;10.40;;;7.07;;
19111;SDS011;9688;51.906;8.376;2023-04-09T12:58:44;10.43;;;7.23;;
19111;SDS011;9688;51.906;8.376;2023-04-09T13:01:29;10.00;;;7.03;;
19111;SDS011;9688;51.906;8.376;2023-04-09T13:04:15;12.03;;;7.57;;
19111;SDS011;9688;51.906;8.376;2023-04-09T13:07:01;10.50;;;7.63;;
19111;SDS011;9688;51.906;8.376;2023-04-09T13:09:47;12.97;;;8.23;;
19111;SDS011;9688;51.906;8.376;2023-04-09T13:12:35;10.60;;;7.30;;
19111;SDS011;9688;51.906;8.376;2023-04-09T13:15:21;10.07;;;7.30;;
19111;SDS011;9688;51.906;8.376;2023-04-09T13:18:07;12.03;;;7.90;;
19111;SDS011;9688;51.906;8.376;2023-04-09T13:20:53;9.10;;;7.00;;
19111;SDS011;9688;51.906;8.376;2023-04-09T13:23:39;10.70;;;7.83;;
19111;SDS011;9688;51.906;8.376;2023-04-09T13:26:24;10.10;;;7.63;;
19111;SDS011;9688;51.906;8.376;2023-04-09T13:29:12;10.07;;;7.80;;
19111;SDS011;9688;51.906;8.376;2023-04-09T13:31:57;11.27;;;7.60;;
19111;SDS011;9688;51.906;8.376;2023-04-09T13:34:45;12.63;;;8.17;;
19111;SDS011;9688;51.906;8.376;2023-04-09T13:37:31;11.43;;;7.33;;
19111;SDS011;9688;51.906;8.376;2023-04-09T13:40:17;11.57;;;7.60;;
19111;SDS011;9688;51.906;8.376;2023-04-09T13:43:03;10.13;;;7.37;;
19111;SDS011;9688;51.906;8.376;2023-04-09T13:45:49;14.00;;;7.73;;
19111;SDS011;9688;51.906;8.376;2023-04-09T13:48:36;9.83;;;7.27;;
19111;SDS011;9688;51.906;8.376;2023-04-09T13:51:22;10.03;;;7.30;;
19111;SDS011;9688;51.906;8.376;2023-04-09T13:54:09;10.67;;;7.20;;
19111;SDS011;9688;51.906;8.376;2023-04-09T13:56:56;12.03;;;7.63;;
19111;SDS011;9688;51.906;8.376;2023-04-09T13:59:42;10.33;;;7.63;;
19111;SDS011;9688;51.906;8.376;2023-04-09T14:02:32;11.90;;;7.70;;
19111;SDS011;9688;51.906;8.376;2023-04-09T14:05:18;11.03;;;7.77;;
19111;SDS011;9688;51.906;8.376;2023-04-09T14:08:04;10.40;;;7.70;;
19111;SDS011;9688;51.906;8.376;2023-04-09T14:10:50;11.17;;;7.77;;
19111;SDS011;9688;51.906;8.376;2023-04-09T14:13:37;10.97;;;8.13;;
19111;SDS011;9688;51.906;8.376;2023-04-09T14:16:24;11.07;;;7.47;;
19111;SDS011;9688;51.906;8.376;2023-04-09T14:19:15;10.50;;;8.00;;
19111;SDS011;9688;51.906;8.376;2023-04-09T14:22:04;12.53;;;8.07;;
19111;SDS011;9688;51.906;8.376;2023-04-09T14:24:51;12.37;;;8.43;;
19111;SDS011;9688;51.906;8.376;2023-04-09T14:27:36;12.83;;;9.03;;
19111;SDS011;9688;51.906;8.376;2023-04-09T14:30:22;13.33;;;8.23;;
19111;SDS011;9688;51.906;8.376;2023-04-09T14:33:08;13.13;;;8.10;;
19111;SDS011;9688;51.906;8.376;2023-04-09T14:35:55;12.70;;;8.53;;
19111;SDS011;9688;51.906;8.376;2023-04-09T14:38:41;12.67;;;8.27;;
19111;SDS011;9688;51.906;8.376;2023-04-09T14:41:27;11.73;;;8.27;;
19111;SDS011;9688;51.906;8.376;2023-04-09T14:44:13;14.80;;;9.20;;
19111;SDS011;9688;51.906;8.376;2023-04-09T14:46:59;13.87;;;9.00;;
19111;SDS011;9688;51.906;8.376;2023-04-09T14:49:45;13.33;;;9.00;;
19111;SDS011;9688;51.906;8.376;2023-04-09T14:52:31;13.10;;;8.83;;
19111;SDS011;9688;51.906;8.376;2023-04-09T14:55:17;16.90;;;9.90;;
19111;SDS011;9688;51.906;8.376;2023-04-09T14:58:04;14.70;;;9.23;;
19111;SDS011;9688;51.906;8.376;2023-04-09T15:00:51;14.87;;;10.03;;
19111;SDS011;9688;51.906;8.376;2023-04-09T15:03:37;14.40;;;9.90;;
19111;SDS011;9688;51.906;8.376;2023-04-09T15:06:25;15.90;;;9.87;;
19111;SDS011;9688;51.906;8.376;2023-04-09T15:09:12;17.47;;;10.20;;
19111;SDS011;9688;51.906;8.376;2023-04-09T15:11:59;15.03;;;9.80;;
19111;SDS011;9688;51.906;8.376;2023-04-09T15:14:46;15.87;;;10.07;;
19111;SDS011;9688;51.906;8.376;2023-04-09T15:17:32;13.83;;;9.80;;
19111;SDS011;9688;51.906;8.376;2023-04-09T15:20:18;17.07;;;10.17;;
19111;SDS011;9688;51.906;8.376;2023-04-09T15:23:03;16.23;;;10.03;;
19111;SDS011;9688;51.906;8.376;2023-04-09T15:25:50;14.67;;;9.67;;
19111;SDS011;9688;51.906;8.376;2023-04-09T15:28:36;15.63;;;10.30;;
19111;SDS011;9688;51.906;8.376;2023-04-09T15:31:22;14.90;;;9.63;;
19111;SDS011;9688;51.906;8.376;2023-04-09T15:34:08;15.30;;;9.70;;
19111;SDS011;9688;51.906;8.376;2023-04-09T15:36:53;15.07;;;9.80;;
19111;SDS011;9688;51.906;8.376;2023-04-09T15:39:39;17.00;;;10.20;;
19111;SDS011;9688;51.906;8.376;2023-04-09T15:42:26;14.80;;;10.33;;
19111;SDS011;9688;51.906;8.376;2023-04-09T15:45:13;16.07;;;9.90;;
19111;SDS011;9688;51.906;8.376;2023-04-09T15:47:59;13.70;;;9.20;;
19111;SDS011;9688;51.906;8.376;2023-04-09T15:50:45;16.33;;;9.33;;
19111;SDS011;9688;51.906;8.376;2023-04-09T15:53:31;15.03;;;9.60;;
19111;SDS011;9688;51.906;8.376;2023-04-09T15:56:18;13.27;;;9.13;;
19111;SDS011;9688;51.906;8.376;2023-04-09T15:59:06;14.87;;;9.60;;
19111;SDS011;9688;51.906;8.376;2023-04-09T16:01:52;14.03;;;8.37;;
19111;SDS011;9688;51.906;8.376;2023-04-09T16:04:38;11.07;;;7.80;;
19111;SDS011;9688;51.906;8.376;2023-04-09T16:07:24;11.23;;;7.80;;
19111;SDS011;9688;51.906;8.376;2023-04-09T16:10:10;11.53;;;7.80;;
19111;SDS011;9688;51.906;8.376;2023-04-09T16:12:59;11.23;;;7.57;;
19111;SDS011;9688;51.906;8.376;2023-04-09T16:15:54;13.00;;;8.20;;
19111;SDS011;9688;51.906;8.376;2023-04-09T16:18:40;12.10;;;8.37;;
19111;SDS011;9688;51.906;8.376;2023-04-09T16:21:26;12.83;;;8.50;;
19111;SDS011;9688;51.906;8.376;2023-04-09T16:24:12;12.63;;;8.20;;
19111;SDS011;9688;51.906;8.376;2023-04-09T16:27:02;11.20;;;8.10;;
19111;SDS011;9688;51.906;8.376;2023-04-09T16:29:48;11.43;;;7.77;;
19111;SDS011;9688;51.906;8.376;2023-04-09T16:32:40;13.57;;;8.47;;
19111;SDS011;9688;51.906;8.376;2023-04-09T16:35:26;13.83;;;8.43;;